You are listening to:
YPPH Tower #1 - Perth, Western Australia, Australia

YPPH 110730Z 07005KT 010V100 9999 FEW048 19/06 Q1024

If stream doesn't start automatically press the play button
If stream stops then reload player then press play